Jürgen Beck

Recruteur en chef - Eintracht Frankfurt
13 Févr 2028
Dimanche
Processus

Personnalité

Adaptabilité (19) Ambition (3) Controverse (5) Loyauté (4) Pression (15) Professionnalisme (8) Sportivité (5) Tempérament (13)

Profil

Style d'entraînement Démocratique
Diplôme Continental Pro
Détermination 6
Gestion des joueurs 8
Motivation 12
Discipline 6
Satisfaction professionnelle
100%
Fatigue
0%
Rôle Recruteur en chef
Salaire 112.8K p/s
Contrat 14.03.2028

Performance

Comportement Bon
Efficacité de l'entraînement
48%
Développement des joueurs
40%
Prévention des blessures
60%
Mise en place tactique
45%

Événements récents

Négociation de contrat entamée maintenant
Négociation de contrat entamée maintenant
A évalué un joueur maintenant
Négociation de contrat entamée maintenant
A évalué un joueur maintenant
Négociation de contrat entamée maintenant
A évalué un joueur maintenant
Négociation de contrat entamée maintenant

Suivi en cours

207
Joueur Club Statut Capacité Confiance Observé Dernière observation Dernier vote
Julian Eyestone Brentford Actif 127 / 137 40% 4 12.02.2028 -
Vuk Draškić OFK Beograd Actif 109 / 129 40% 1 12.02.2028 -
Tommaso Orsini Monopoli Actif 106 / 110 40% 2 11.02.2028 -
Matei Popa Astra Actif 106 / 122 40% 1 11.02.2028 -
Facundo Insfrán Al Nasr Actif 121 / 140 40% 1 09.02.2028 -
João Pedro Santos Actif 114 / 138 40% 1 07.02.2028 -
Evanilson Southampton Actif 149 / 152 40% 1 31.01.2028 -
Youssef En-Nesyri Padideh Perdu 151 / 129 40% 1 31.01.2028 -
Alexander Isak Liverpool Actif 175 / 178 40% 2 17.01.2028 -
Sebastiano Esposito Cagliari Actif 142 / 143 40% 1 17.01.2028 -
Rémi Himbert AC Ajaccio Actif 124 / 118 40% 3 11.01.2028 -
Igor Tyjon Barrow AFC Actif 117 / 126 40% 1 11.01.2028 -
Victor Hernandez Santa Fe Actif 125 / 126 40% 13 01.01.2028 -
Pau Víctor Braga Actif 151 / 147 40% 3 31.12.2027 -
Rafael Moreno Atletico Venezuela Actif 95 / 102 40% 1 30.12.2027 -
Nikolaus Wurmbrand Girona Actif 122 / 126 40% 1 30.12.2027 -
Bautista Carboni Defensores Unidos Actif 115 / 119 40% 2 25.12.2027 -
Ethan Nwaneri Arsenal Actif 155 / 157 40% 2 24.12.2027 -
Edmund Baidoo St. Gallen Actif 121 / 130 40% 1 24.12.2027 -
Mateo Peralta Danubio Actif 97 / 112 40% 1 23.12.2027 -
Kauã Moraes Flamengo Actif 117 / 130 40% 5 22.12.2027 -
Bryan Caicedo Leones Actif 99 / 94 40% 1 22.12.2027 -
Gilberto Mora Guadalajara Actif 149 / 155 40% 2 21.12.2027 -
Ryan Kavuma-McQueen Accrington Stanley Actif 121 / 137 40% 1 21.12.2027 -
Leon Grgić Werder Bremen Actif 132 / 141 40% 1 20.12.2027 -
Pedro Baltika Actif 139 / 138 40% 2 19.12.2027 -
Fodé Sylla Sion Actif 115 / 123 40% 3 17.12.2027 -
Jorge Salinas Racing Santander Actif 131 / 134 40% 3 15.12.2027 -
Honest Ahanor Atalanta Actif 141 / 144 40% 3 15.12.2027 -
Nathan De Cat SC Freiburg Actif 141 / 143 40% 2 15.12.2027 -
Héctor Fort Real Sociedad Actif 137 / 149 40% 4 10.12.2027 -
Jorge Moreno Athletic Bilbao Actif 129 / 131 40% 1 09.12.2027 -
Lucas Høgsberg RC Strasbourg Actif 148 / 142 40% 1 09.12.2027 -
Matteo Pérez Vinlöf Dinamo Zagreb Actif 124 / 133 40% 2 07.12.2027 -
Archie Gray Southampton Actif 153 / 162 40% 3 06.12.2027 -
Josh King Newcastle United Actif 142 / 143 40% 4 06.12.2027 -
Giovanni Leoni Lincoln City Actif 138 / 152 40% 3 06.12.2027 -
Kerim Alajbegović Modena Actif 140 / 130 40% 1 06.12.2027 -
Jeremías Merlo Gimnasia La Plata Actif 113 / 113 40% 1 05.12.2027 -
Jorrel Hato Chelsea Actif 154 / 150 40% 3 04.12.2027 -
Tyler Fletcher Rotherham United Actif 110 / 121 40% 3 04.12.2027 -
Finn Jeltsch VfB Stuttgart Actif 132 / 148 40% 3 01.12.2027 -
Josh Nichols Oldham Athletic Actif 119 / 131 40% 1 01.12.2027 -
Nahuel Leivas Montevideo City Torque Actif 119 / 114 40% 3 30.11.2027 -
Josh Acheampong Everton Actif 138 / 154 40% 4 28.11.2027 -
Nicolás Barros Schelotto Gimnasia La Plata Actif 116 / 128 40% 1 26.11.2027 -
Matias Siltanen Malmo FF Actif 115 / 142 40% 7 24.11.2027 -
Matvey Bardachev Zenit Actif 113 / 118 40% 1 24.11.2027 -
Ollie Scarles West Ham United Actif 143 / 147 40% 5 23.11.2027 -
Agustín De la Cuesta Racing Actif 97 / 119 40% 3 23.11.2027 -
Caleb Yirenkyi Coventry City Actif 147 / 150 40% 2 21.11.2027 -
Alex Verón Vélez Actif 123 / 112 40% 1 19.11.2027 -
Izan Merino Málaga Actif 133 / 128 40% 2 18.11.2027 -
Matías Arias Vélez Actif 109 / 104 40% 1 17.11.2027 -
Adrian Skogmar Malmo FF Actif 122 / 115 40% 6 15.11.2027 -
Julián Bazán New York Red Bulls Actif 117 / 117 40% 3 15.11.2027 -
Kenan Busuladžić Malmo FF Actif 111 / 138 40% 2 14.11.2027 -
Kosta Nedeljković Aston Villa Actif 136 / 142 40% 4 12.11.2027 -
Jussef Nasrawe SV Ried Actif 108 / 114 40% 1 12.11.2027 -
Vinícius Lira São Paulo Actif 124 / 119 40% 4 08.11.2027 -
Agustín Obregón River Plate Actif 112 / 106 40% 1 05.11.2027 -
Malick Yalcouyé Brighton Actif 136 / 138 40% 3 04.11.2027 -
Bung Meng Freimann Luzern Actif 119 / 113 40% 1 03.11.2027 -
Pau Cubarsí Real Sociedad Actif 159 / 173 40% 3 29.10.2027 -
Olivier Mambwa Young Boys Actif 102 / 111 40% 2 26.10.2027 -
Esquerdinha Notts County Actif 114 / 134 40% 1 21.10.2027 -
Hugo Rojas Instituto Actif 96 / 106 40% 1 20.10.2027 -
Corsin Konietzke St. Gallen Actif 117 / 116 40% 2 19.10.2027 -
Noahkai Banks FC Augsburg Actif 131 / 153 40% 2 18.10.2027 -
Ayden Heaven Portsmouth Actif 150 / 153 40% 2 15.10.2027 -
Trey Nyoni Rotherham United Actif 137 / 151 40% 1 09.10.2027 -
Marvin Akahomen Basel Actif 107 / 107 40% 2 08.10.2027 -
Santiago Murillo Alianza Petrolera Actif 113 / 124 40% 2 04.10.2027 -
Andrej Bačanin Basel Actif 113 / 123 40% 1 29.09.2027 -
Victor Froholdt Porto Actif 158 / 160 40% 2 28.09.2027 -
Juma Bah Manchester City Actif 121 / 137 40% 2 28.09.2027 -
Sebastián Ramírez Aguilas Doradas Actif 93 / 122 40% 2 24.09.2027 -
Edvard Pettersen Sandefjord Actif 93 / 121 40% 1 21.09.2027 -
Dejan Radonjić SV Ried Actif 121 / 116 40% 2 17.09.2027 -
Eliás Montiel Borussia Dortmund Actif 140 / 128 40% 1 14.09.2027 -
Pedro Soma San Diego Football Club Actif 90 / 106 40% 1 12.09.2027 -
Jon Martín Real Sociedad Actif 140 / 151 40% 1 09.09.2027 -
Kevin Dawson Defensor Sporting Actif 128 / 105 40% 1 31.08.2027 -
Neto Volpi Deportes Tolima Actif 122 / 128 40% 1 31.08.2027 -
Daniel Sappa San Miguel Actif 102 / 110 40% 1 23.08.2027 -
Leo Román Deportivo La Coruña Actif 149 / 157 40% 1 09.08.2027 -
Radek Vítek Middlesbrough Actif 139 / 148 40% 1 02.08.2027 -
Anthony Patterson Wrexham Actif 145 / 134 40% 1 28.07.2027 -
Caoimhin Kelleher Brentford Actif 155 / 158 40% 1 19.07.2027 -
Kai Havertz Arsenal Actif 155 / 170 40% 14 21.06.2027 -
Saïd El Mala Köln Actif 130 / 146 58% 1 04.06.2027 -
Carlos Vicente Birmingham Actif 140 / 143 40% 6 29.05.2027 -
Aimar Osasuna Actif 152 / 138 40% 2 27.05.2027 -
Gonzalo Fulham Actif 152 / 144 40% 1 27.05.2027 -
Omar El Hilali Espanyol Actif 155 / 142 40% 7 26.05.2027 -
Ryan Gravenberch Liverpool Actif 160 / 165 40% 3 25.05.2027 -
Dani Olmo Barcelona Actif 159 / 171 40% 4 25.05.2027 -
Nordi Mukiele Sunderland Actif 147 / 144 40% 2 25.05.2027 -
Álex Baena Atlético Madrid Actif 154 / 156 40% 3 23.05.2027 -
Matheus Cunha Manchester United Actif 152 / 156 40% 4 22.05.2027 -
Giacomo Raspadori Atalanta Actif 153 / 141 40% 1 20.05.2027 -
Gaspar Gijón Actif 131 / 132 40% 1 20.05.2027 -
Brais Méndez RC Lens Actif 145 / 145 40% 3 19.05.2027 -
Pablo Torre Mallorca Actif 139 / 152 40% 1 19.05.2027 -
Federico Chiesa Liverpool Actif 164 / 151 40% 5 17.05.2027 -
Chemsdine Talbi Sunderland Actif 143 / 146 40% 2 17.05.2027 -
Morgan Gibbs-White Nottingham Forest Actif 150 / 146 40% 1 15.05.2027 -
Jonathan Dubasin Osasuna Actif 153 / 139 40% 2 13.05.2027 -
Mikel Jauregizar Athletic Bilbao Actif 152 / 154 40% 3 12.05.2027 -
Georges Mikautadze Villarreal Actif 158 / 156 40% 2 09.05.2027 -
Luis Díaz Bayern Munich Actif 168 / 164 40% 7 08.05.2027 Observer
Carlos Romero Villarreal Actif 156 / 140 40% 2 06.05.2027 -
Francisco Conceição Köln Actif 167 / 159 40% 3 04.05.2027 -
Yeremy Pino Crystal Palace Actif 159 / 144 40% 5 04.05.2027 -
Osame Sahraoui LOSC Lille Actif 145 / 138 40% 3 03.05.2027 -
Harry Wilson Leeds United Actif 145 / 142 40% 1 02.05.2027 -
Khvicha Kvaratskhelia Paris Saint-Germain Actif 165 / 166 40% 2 01.05.2027 -
Lewis Hall Newcastle United Actif 149 / 161 40% 1 01.05.2027 -
Noussair Mazraoui Manchester United Actif 152 / 150 40% 2 28.04.2027 -
Moisés Caicedo Chelsea Actif 174 / 176 40% 9 27.04.2027 -
Ademola Lookman Atlético Madrid Actif 168 / 152 40% 4 23.04.2027 -
Giannis Konstantelias Borussia Dortmund Actif 133 / 148 40% 1 22.04.2027 -
Yussif Saidu Zaragoza Actif 114 / 129 40% 2 20.04.2027 -
Mason Mount Manchester United Actif 147 / 147 40% 1 18.04.2027 -
Oihan Sancet Athletic Bilbao Actif 161 / 166 40% 4 15.04.2027 -
Roberto Fernández Braga Actif 138 / 145 40% 3 15.04.2027 -
Assane Diao Como Actif 147 / 150 40% 1 14.04.2027 -
David Raum RB Leipzig Actif 142 / 162 40% 3 13.04.2027 -
Georginio Rutter Brighton Actif 150 / 138 40% 1 13.04.2027 -
Charles Martin Bayern Munich Actif 152 / 163 40% 4 12.04.2027 -
Fran García Betis Actif 145 / 157 40% 2 12.04.2027 -
Gavi Barcelona Actif 156 / 163 40% 2 11.04.2027 -
Lucien Agoumé Sevilla Actif 145 / 133 40% 2 11.04.2027 -
Jan Bürger Northampton Town Actif 106 / 107 40% 1 11.04.2027 -
Alex Scott Bournemouth Actif 140 / 148 40% 1 09.04.2027 -
Gabriel Martinelli Arsenal Actif 156 / 155 40% 10 06.04.2027 -
Amadou Onana Aston Villa Actif 146 / 166 40% 3 06.04.2027 -
Givairo Read Feyenoord Actif 141 / 140 40% 1 06.04.2027 -
Ivan Giraldo Valencia Actif 115 / 121 40% 1 06.04.2027 -
Bernardo TSG Hoffenheim Actif 130 / 134 40% 1 01.04.2027 -
Kevin Fulham Actif 153 / 140 40% 1 01.04.2027 -
Alphonso Davies Bayern Munich Actif 168 / 157 40% 3 31.03.2027 -
João Teixeira Porto Actif 113 / 108 40% 1 26.03.2027 -
Ismaïla Sarr Crystal Palace Actif 147 / 139 40% 1 25.03.2027 -
Alexis Mac Allister Liverpool Actif 165 / 163 40% 1 18.03.2027 -
Miguel Gutiérrez Bayer Leverkusen Actif 161 / 144 40% 2 12.03.2027 -
Carlos Álvarez Club America Actif 150 / 143 40% 3 11.03.2027 -
Geny Sporting CP Actif 143 / 153 40% 1 10.03.2027 -
Jesús Areso Athletic Bilbao Actif 137 / 146 40% 4 09.03.2027 -
Matheus Nunes Manchester City Actif 161 / 160 40% 2 09.03.2027 -
Felix Nmecha Borussia Dortmund Actif 160 / 159 40% 2 03.03.2027 -
Pedro Porro Tottenham Actif 149 / 142 40% 1 03.03.2027 -
Pau Navarro Villarreal Actif 137 / 139 40% 1 03.03.2027 -
Manu Koné AS Roma Actif 164 / 152 40% 3 25.02.2027 -
Tyler Adams Bournemouth Actif 151 / 153 40% 1 23.02.2027 -
Kenny Tete Fulham Actif 137 / 139 40% 1 22.02.2027 -
Jarrad Branthwaite Everton Actif 161 / 147 40% 1 21.02.2027 -
Dara O'Shea Ipswich Town Actif 147 / 127 40% 1 20.02.2027 -
Pedri Barcelona Actif 173 / 188 40% 4 18.02.2027 -
Johnny Cardoso Atlético Madrid Actif 162 / 154 40% 3 17.02.2027 -
Frenkie de Jong Barcelona Actif 170 / 175 40% 5 14.02.2027 -
José Ángel Carmona Sevilla Actif 147 / 157 40% 2 14.02.2027 -
Alejandro Grimaldo Atlético Madrid Actif 164 / 152 40% 3 04.02.2027 -
Vitinha Paris Saint-Germain Actif 170 / 174 40% 1 02.02.2027 -
Andrés Martín Racing Santander Actif 146 / 124 40% 2 18.01.2027 -
Rodrygo Real Madrid Actif 166 / 167 40% 3 11.01.2027 -
Takefusa Kubo VfB Stuttgart Actif 144 / 157 40% 2 11.01.2027 -
Ellyes Skhiri Köln Actif 136 / 147 55% 1 11.01.2027 -
Zakaria El Ouahdi Hamburger SV Actif 130 / 125 55% 1 07.01.2027 -
Anthony Gordon Barcelona Actif 156 / 167 40% 2 30.12.2026 -
Adam Hložek TSG Hoffenheim Actif 132 / 138 40% 1 29.12.2026 -
Agustín Palavecino Cruz Azul Actif 133 / 142 40% 1 23.12.2026 -
Isaac Romero Sevilla Actif 149 / 146 40% 1 18.12.2026 -
Rilind Nivokazi Sion Actif 126 / 111 40% 2 17.12.2026 -
Hugo Ekitiké Liverpool Actif 156 / 162 40% 3 14.12.2026 -
João Pedro Chelsea Actif 146 / 145 40% 1 13.12.2026 -
Jude Bellingham Real Madrid Actif 186 / 171 40% 6 10.12.2026 -
Álex Berenguer Lokomotiv Moscow Actif 144 / 149 40% 1 05.12.2026 -
Raphinha Barcelona Actif 168 / 184 40% 6 29.11.2026 -
Jamal Musiala Bayern Munich Actif 170 / 172 40% 3 24.11.2026 -
Julian von Moos Grasshopper Actif 125 / 109 40% 4 21.11.2026 -
Dušan Vlahović Hamburger SV Actif 155 / 171 40% 1 21.11.2026 -
Vinícius Júnior Paris Saint-Germain Actif 170 / 174 40% 6 17.11.2026 -
Ibrahim Salah Basel Actif 118 / 120 40% 1 15.11.2026 -
Juan-José Perea Zurich Actif 125 / 121 40% 4 06.11.2026 -
Iliman N'Diaye Everton Actif 149 / 148 40% 4 03.11.2026 -
Sota Kitano Red Bull Salzburg Actif 125 / 130 40% 1 02.11.2026 -
Philippe Keny Zurich Actif 119 / 118 40% 2 01.11.2026 -
Rayan Cherki Manchester City Actif 173 / 171 40% 4 26.10.2026 -
Michael Olise Bayern Munich Actif 167 / 183 40% 2 19.10.2026 -
Ayo Akinola Vaduz Actif 102 / 100 40% 1 19.10.2026 -
Martin Ødegaard Arsenal Actif 184 / 185 40% 6 11.10.2026 -
Darian Maleš Young Boys Actif 116 / 130 40% 1 08.10.2026 -
Bradley Barcola Liverpool Actif 159 / 172 40% 1 08.10.2026 -
Carlos Rodríguez Cruz Azul Actif 155 / 144 40% 1 05.10.2026 -
Talles Magno New York City Actif 148 / 131 40% 1 03.10.2026 -
Federico Valverde Real Madrid Actif 171 / 171 40% 1 27.09.2026 -
Nico Williams Athletic Bilbao Actif 160 / 177 40% 1 27.09.2026 -
Joshua Kimmich Bayern Munich Actif 187 / 170 40% 4 26.09.2026 -
Andrin Hunziker St. Gallen Actif 104 / 107 40% 2 17.09.2026 -
Julián Álvarez Atlético Madrid Actif 178 / 163 40% 1 17.09.2026 -
Eduardo Camavinga Real Madrid Actif 176 / 174 40% 1 12.09.2026 -
Jérémy Doku Manchester City Actif 168 / 169 40% 1 10.09.2026 -
Antoine Semenyo Manchester City Actif 168 / 151 40% 1 07.09.2026 -
Ragnar Ache Köln Actif 134 / 130 51% 1 31.08.2026 -
Serge Gnabry Bayern Munich Actif 159 / 149 40% 1 31.08.2026 -
Éder Militão Real Madrid Actif 154 / 163 40% 1 01.08.2026 -